sensor_id;sensor_type;location;lat;lon;timestamp;pressure;altitude;pressure_sealevel;temperature
71960;BMP280;59832;51.146;14.024;2023-12-20T00:00:25;97776.75;;;4.94
71960;BMP280;59832;51.146;14.024;2023-12-20T00:02:51;97771.41;;;4.96
71960;BMP280;59832;51.146;14.024;2023-12-20T00:05:18;97765.63;;;4.95
71960;BMP280;59832;51.146;14.024;2023-12-20T00:07:44;97770.81;;;4.99
71960;BMP280;59832;51.146;14.024;2023-12-20T00:10:11;97760.50;;;4.92
71960;BMP280;59832;51.146;14.024;2023-12-20T00:12:39;97762.34;;;4.83
71960;BMP280;59832;51.146;14.024;2023-12-20T00:15:06;97766.34;;;4.84
71960;BMP280;59832;51.146;14.024;2023-12-20T00:17:33;97754.16;;;4.86
71960;BMP280;59832;51.146;14.024;2023-12-20T00:19:59;97756.69;;;4.86
71960;BMP280;59832;51.146;14.024;2023-12-20T00:22:26;97743.53;;;4.80
71960;BMP280;59832;51.146;14.024;2023-12-20T00:24:52;97740.47;;;4.74
71960;BMP280;59832;51.146;14.024;2023-12-20T00:27:19;97752.22;;;4.70
71960;BMP280;59832;51.146;14.024;2023-12-20T00:29:45;97742.97;;;4.74
71960;BMP280;59832;51.146;14.024;2023-12-20T00:32:14;97739.31;;;4.72
71960;BMP280;59832;51.146;14.024;2023-12-20T00:34:40;97735.91;;;4.68
71960;BMP280;59832;51.146;14.024;2023-12-20T00:37:06;97732.78;;;4.71
71960;BMP280;59832;51.146;14.024;2023-12-20T00:39:33;97745.88;;;4.64
71960;BMP280;59832;51.146;14.024;2023-12-20T00:41:59;97733.28;;;4.64
71960;BMP280;59832;51.146;14.024;2023-12-20T00:44:26;97739.66;;;4.62
71960;BMP280;59832;51.146;14.024;2023-12-20T00:46:52;97736.78;;;4.51
71960;BMP280;59832;51.146;14.024;2023-12-20T00:49:19;97735.72;;;4.52
71960;BMP280;59832;51.146;14.024;2023-12-20T00:51:45;97743.78;;;4.46
71960;BMP280;59832;51.146;14.024;2023-12-20T00:54:13;97741.22;;;4.54
71960;BMP280;59832;51.146;14.024;2023-12-20T00:56:40;97734.25;;;4.51
71960;BMP280;59832;51.146;14.024;2023-12-20T00:59:06;97729.94;;;4.52
71960;BMP280;59832;51.146;14.024;2023-12-20T01:01:33;97729.50;;;4.50
71960;BMP280;59832;51.146;14.024;2023-12-20T01:03:59;97725.41;;;4.45
71960;BMP280;59832;51.146;14.024;2023-12-20T01:06:26;97724.53;;;4.41
71960;BMP280;59832;51.146;14.024;2023-12-20T01:08:52;97720.56;;;4.40
71960;BMP280;59832;51.146;14.024;2023-12-20T01:11:19;97717.59;;;4.38
71960;BMP280;59832;51.146;14.024;2023-12-20T01:13:45;97716.25;;;4.41
71960;BMP280;59832;51.146;14.024;2023-12-20T01:16:12;97715.06;;;4.38
71960;BMP280;59832;51.146;14.024;2023-12-20T01:18:38;97705.09;;;4.42
71960;BMP280;59832;51.146;14.024;2023-12-20T01:21:05;97699.31;;;4.41
71960;BMP280;59832;51.146;14.024;2023-12-20T01:23:31;97694.63;;;4.40
71960;BMP280;59832;51.146;14.024;2023-12-20T01:25:58;97699.09;;;4.34
71960;BMP280;59832;51.146;14.024;2023-12-20T01:28:26;97692.03;;;4.27
71960;BMP280;59832;51.146;14.024;2023-12-20T01:30:52;97695.94;;;4.37
71960;BMP280;59832;51.146;14.024;2023-12-20T01:33:19;97694.84;;;4.26
71960;BMP280;59832;51.146;14.024;2023-12-20T01:35:45;97686.56;;;4.25
71960;BMP280;59832;51.146;14.024;2023-12-20T01:38:12;97694.53;;;4.27
71960;BMP280;59832;51.146;14.024;2023-12-20T01:40:38;97690.84;;;4.25
71960;BMP280;59832;51.146;14.024;2023-12-20T01:43:08;97696.16;;;4.32
71960;BMP280;59832;51.146;14.024;2023-12-20T01:45:35;97687.19;;;4.22
71960;BMP280;59832;51.146;14.024;2023-12-20T01:48:01;97690.00;;;4.21
71960;BMP280;59832;51.146;14.024;2023-12-20T01:50:29;97679.19;;;4.20
71960;BMP280;59832;51.146;14.024;2023-12-20T01:52:57;97674.25;;;4.24
71960;BMP280;59832;51.146;14.024;2023-12-20T01:55:25;97680.03;;;4.24
71960;BMP280;59832;51.146;14.024;2023-12-20T01:57:51;97670.44;;;4.18
71960;BMP280;59832;51.146;14.024;2023-12-20T02:00:18;97664.50;;;4.22
71960;BMP280;59832;51.146;14.024;2023-12-20T02:02:49;97678.88;;;4.22
71960;BMP280;59832;51.146;14.024;2023-12-20T02:05:17;97672.13;;;4.14
71960;BMP280;59832;51.146;14.024;2023-12-20T02:07:43;97682.94;;;4.14
71960;BMP280;59832;51.146;14.024;2023-12-20T02:10:10;97678.81;;;4.10
71960;BMP280;59832;51.146;14.024;2023-12-20T02:12:37;97676.72;;;4.12
71960;BMP280;59832;51.146;14.024;2023-12-20T02:15:04;97680.28;;;4.11
71960;BMP280;59832;51.146;14.024;2023-12-20T02:17:31;97675.47;;;4.18
71960;BMP280;59832;51.146;14.024;2023-12-20T02:19:58;97662.44;;;4.16
71960;BMP280;59832;51.146;14.024;2023-12-20T02:22:24;97657.47;;;4.07
71960;BMP280;59832;51.146;14.024;2023-12-20T02:24:51;97647.13;;;4.09
71960;BMP280;59832;51.146;14.024;2023-12-20T02:27:17;97657.63;;;4.11
71960;BMP280;59832;51.146;14.024;2023-12-20T02:29:44;97645.22;;;4.06
71960;BMP280;59832;51.146;14.024;2023-12-20T02:32:12;97655.84;;;4.11
71960;BMP280;59832;51.146;14.024;2023-12-20T02:34:39;97650.56;;;4.04
71960;BMP280;59832;51.146;14.024;2023-12-20T02:37:05;97651.59;;;4.03
71960;BMP280;59832;51.146;14.024;2023-12-20T02:39:32;97649.38;;;4.02
71960;BMP280;59832;51.146;14.024;2023-12-20T02:41:59;97653.81;;;4.05
71960;BMP280;59832;51.146;14.024;2023-12-20T02:44:25;97647.00;;;4.05
71960;BMP280;59832;51.146;14.024;2023-12-20T02:46:52;97643.91;;;4.00
71960;BMP280;59832;51.146;14.024;2023-12-20T02:49:18;97653.84;;;3.96
71960;BMP280;59832;51.146;14.024;2023-12-20T02:51:45;97641.56;;;3.94
71960;BMP280;59832;51.146;14.024;2023-12-20T02:54:12;97641.16;;;3.92
71960;BMP280;59832;51.146;14.024;2023-12-20T02:56:39;97634.63;;;3.91
71960;BMP280;59832;51.146;14.024;2023-12-20T02:59:05;97639.22;;;3.89
71960;BMP280;59832;51.146;14.024;2023-12-20T03:01:32;97645.00;;;3.90
71960;BMP280;59832;51.146;14.024;2023-12-20T03:03:58;97637.59;;;3.93
71960;BMP280;59832;51.146;14.024;2023-12-20T03:06:25;97643.38;;;3.94
71960;BMP280;59832;51.146;14.024;2023-12-20T03:08:51;97639.38;;;3.93
71960;BMP280;59832;51.146;14.024;2023-12-20T03:11:18;97643.03;;;3.96
71960;BMP280;59832;51.146;14.024;2023-12-20T03:13:44;97644.25;;;3.89
71960;BMP280;59832;51.146;14.024;2023-12-20T03:16:11;97642.06;;;3.88
71960;BMP280;59832;51.146;14.024;2023-12-20T03:18:37;97642.63;;;3.93
71960;BMP280;59832;51.146;14.024;2023-12-20T03:21:04;97638.63;;;3.92
71960;BMP280;59832;51.146;14.024;2023-12-20T03:23:31;97630.34;;;3.92
71960;BMP280;59832;51.146;14.024;2023-12-20T03:25:59;97627.81;;;3.92
71960;BMP280;59832;51.146;14.024;2023-12-20T03:28:26;97628.44;;;3.89
71960;BMP280;59832;51.146;14.024;2023-12-20T03:30:53;97630.78;;;3.94
71960;BMP280;59832;51.146;14.024;2023-12-20T03:33:19;97623.28;;;3.85
71960;BMP280;59832;51.146;14.024;2023-12-20T03:35:46;97619.81;;;3.90
71960;BMP280;59832;51.146;14.024;2023-12-20T03:38:12;97620.00;;;3.85
71960;BMP280;59832;51.146;14.024;2023-12-20T03:40:39;97622.09;;;3.83
71960;BMP280;59832;51.146;14.024;2023-12-20T03:43:05;97621.66;;;3.81
71960;BMP280;59832;51.146;14.024;2023-12-20T03:45:32;97620.44;;;3.87
71960;BMP280;59832;51.146;14.024;2023-12-20T03:47:58;97617.63;;;3.88
71960;BMP280;59832;51.146;14.024;2023-12-20T03:50:25;97619.97;;;3.93
71960;BMP280;59832;51.146;14.024;2023-12-20T03:52:52;97618.06;;;3.90
71960;BMP280;59832;51.146;14.024;2023-12-20T03:55:18;97619.53;;;3.91
71960;BMP280;59832;51.146;14.024;2023-12-20T03:57:45;97620.72;;;3.94
71960;BMP280;59832;51.146;14.024;2023-12-20T04:00:12;97624.56;;;3.91
71960;BMP280;59832;51.146;14.024;2023-12-20T04:02:38;97621.00;;;3.92
71960;BMP280;59832;51.146;14.024;2023-12-20T04:05:06;97613.16;;;3.94
71960;BMP280;59832;51.146;14.024;2023-12-20T04:07:32;97617.56;;;3.97
71960;BMP280;59832;51.146;14.024;2023-12-20T04:09:59;97626.16;;;3.96
71960;BMP280;59832;51.146;14.024;2023-12-20T04:12:26;97624.38;;;3.97
71960;BMP280;59832;51.146;14.024;2023-12-20T04:14:53;97631.94;;;3.97
71960;BMP280;59832;51.146;14.024;2023-12-20T04:17:19;97632.34;;;3.99
71960;BMP280;59832;51.146;14.024;2023-12-20T04:19:46;97626.91;;;3.97
71960;BMP280;59832;51.146;14.024;2023-12-20T04:22:12;97620.72;;;3.94
71960;BMP280;59832;51.146;14.024;2023-12-20T04:24:39;97632.56;;;3.93
71960;BMP280;59832;51.146;14.024;2023-12-20T04:27:08;97629.78;;;3.86
71960;BMP280;59832;51.146;14.024;2023-12-20T04:29:35;97624.56;;;3.91
71960;BMP280;59832;51.146;14.024;2023-12-20T04:32:01;97619.63;;;3.95
71960;BMP280;59832;51.146;14.024;2023-12-20T04:34:27;97626.56;;;3.98
71960;BMP280;59832;51.146;14.024;2023-12-20T04:36:54;97627.06;;;3.91
71960;BMP280;59832;51.146;14.024;2023-12-20T04:39:20;97630.91;;;3.98
71960;BMP280;59832;51.146;14.024;2023-12-20T04:41:48;97632.34;;;3.99
71960;BMP280;59832;51.146;14.024;2023-12-20T04:44:14;97628.03;;;3.99
71960;BMP280;59832;51.146;14.024;2023-12-20T04:46:40;97618.13;;;4.03
71960;BMP280;59832;51.146;14.024;2023-12-20T04:49:07;97610.88;;;4.01
71960;BMP280;59832;51.146;14.024;2023-12-20T04:51:33;97618.41;;;4.01
71960;BMP280;59832;51.146;14.024;2023-12-20T04:54:01;97627.00;;;4.00
71960;BMP280;59832;51.146;14.024;2023-12-20T04:56:27;97617.81;;;4.04
71960;BMP280;59832;51.146;14.024;2023-12-20T04:58:53;97628.03;;;3.99
71960;BMP280;59832;51.146;14.024;2023-12-20T05:01:20;97613.53;;;4.05
71960;BMP280;59832;51.146;14.024;2023-12-20T05:03:47;97625.22;;;4.01
71960;BMP280;59832;51.146;14.024;2023-12-20T05:06:14;97618.25;;;4.06
71960;BMP280;59832;51.146;14.024;2023-12-20T05:08:41;97615.47;;;3.99
71960;BMP280;59832;51.146;14.024;2023-12-20T05:11:07;97627.31;;;3.99
71960;BMP280;59832;51.146;14.024;2023-12-20T05:13:33;97630.16;;;3.97
71960;BMP280;59832;51.146;14.024;2023-12-20T05:16:12;97621.06;;;4.05
71960;BMP280;59832;51.146;14.024;2023-12-20T05:18:40;97632.56;;;3.93
71960;BMP280;59832;51.146;14.024;2023-12-20T05:21:07;97631.06;;;3.92
71960;BMP280;59832;51.146;14.024;2023-12-20T05:23:33;97632.13;;;3.91
71960;BMP280;59832;51.146;14.024;2023-12-20T05:25:59;97628.84;;;3.91
71960;BMP280;59832;51.146;14.024;2023-12-20T05:28:26;97628.56;;;3.92
71960;BMP280;59832;51.146;14.024;2023-12-20T05:30:53;97632.22;;;3.95
71960;BMP280;59832;51.146;14.024;2023-12-20T05:33:19;97644.25;;;3.89
71960;BMP280;59832;51.146;14.024;2023-12-20T05:35:46;97641.88;;;3.93
71960;BMP280;59832;51.146;14.024;2023-12-20T05:38:12;97652.81;;;3.97
71960;BMP280;59832;51.146;14.024;2023-12-20T05:40:39;97648.69;;;3.92
71960;BMP280;59832;51.146;14.024;2023-12-20T05:43:05;97646.19;;;3.92
71960;BMP280;59832;51.146;14.024;2023-12-20T05:45:31;97642.00;;;3.97
71960;BMP280;59832;51.146;14.024;2023-12-20T05:47:58;97640.53;;;3.96
71960;BMP280;59832;51.146;14.024;2023-12-20T05:50:25;97640.09;;;3.93
71960;BMP280;59832;51.146;14.024;2023-12-20T05:52:51;97652.81;;;3.97
71960;BMP280;59832;51.146;14.024;2023-12-20T05:55:18;97655.63;;;3.96
71960;BMP280;59832;51.146;14.024;2023-12-20T05:57:44;97658.78;;;3.92
71960;BMP280;59832;51.146;14.024;2023-12-20T06:00:11;97658.59;;;3.98
71960;BMP280;59832;51.146;14.024;2023-12-20T06:02:38;97664.03;;;4.00
71960;BMP280;59832;51.146;14.024;2023-12-20T06:05:04;97663.44;;;4.03
71960;BMP280;59832;51.146;14.024;2023-12-20T06:07:31;97663.50;;;3.94
71960;BMP280;59832;51.146;14.024;2023-12-20T06:09:57;97669.06;;;4.00
71960;BMP280;59832;51.146;14.024;2023-12-20T06:12:24;97678.56;;;4.03
71960;BMP280;59832;51.146;14.024;2023-12-20T06:14:52;97663.00;;;4.01
71960;BMP280;59832;51.146;14.024;2023-12-20T06:17:19;97678.09;;;4.01
71960;BMP280;59832;51.146;14.024;2023-12-20T06:19:45;97676.47;;;4.05
71960;BMP280;59832;51.146;14.024;2023-12-20T06:22:15;97678.41;;;3.99
71960;BMP280;59832;51.146;14.024;2023-12-20T06:24:41;97671.59;;;4.00
71960;BMP280;59832;51.146;14.024;2023-12-20T06:27:08;97669.50;;;4.02
71960;BMP280;59832;51.146;14.024;2023-12-20T06:29:34;97673.66;;;4.06
71960;BMP280;59832;51.146;14.024;2023-12-20T06:32:01;97668.78;;;4.01
71960;BMP280;59832;51.146;14.024;2023-12-20T06:34:27;97669.78;;;4.09
71960;BMP280;59832;51.146;14.024;2023-12-20T06:36:54;97675.28;;;4.02
71960;BMP280;59832;51.146;14.024;2023-12-20T06:39:22;97679.88;;;4.00
71960;BMP280;59832;51.146;14.024;2023-12-20T06:41:49;97679.84;;;4.09
71960;BMP280;59832;51.146;14.024;2023-12-20T06:44:15;97683.41;;;4.08
71960;BMP280;59832;51.146;14.024;2023-12-20T06:46:42;97688.44;;;4.08
71960;BMP280;59832;51.146;14.024;2023-12-20T06:49:08;97692.63;;;4.04
71960;BMP280;59832;51.146;14.024;2023-12-20T06:51:34;97701.78;;;4.08
71960;BMP280;59832;51.146;14.024;2023-12-20T06:54:01;97700.19;;;4.04
71960;BMP280;59832;51.146;14.024;2023-12-20T06:56:29;97701.22;;;4.03
71960;BMP280;59832;51.146;14.024;2023-12-20T06:58:55;97708.75;;;4.03
71960;BMP280;59832;51.146;14.024;2023-12-20T07:01:21;97709.50;;;4.03
71960;BMP280;59832;51.146;14.024;2023-12-20T07:03:48;97699.69;;;4.10
71960;BMP280;59832;51.146;14.024;2023-12-20T07:06:15;97706.94;;;4.12
71960;BMP280;59832;51.146;14.024;2023-12-20T07:08:43;97706.41;;;4.06
71960;BMP280;59832;51.146;14.024;2023-12-20T07:11:09;97714.53;;;4.03
71960;BMP280;59832;51.146;14.024;2023-12-20T07:13:35;97707.72;;;4.04
71960;BMP280;59832;51.146;14.024;2023-12-20T07:16:02;97719.88;;;4.02
71960;BMP280;59832;51.146;14.024;2023-12-20T07:18:29;97719.00;;;3.98
71960;BMP280;59832;51.146;14.024;2023-12-20T07:20:55;97716.50;;;3.98
71960;BMP280;59832;51.146;14.024;2023-12-20T07:23:22;97713.25;;;3.97
71960;BMP280;59832;51.146;14.024;2023-12-20T07:25:48;97705.97;;;3.96
71960;BMP280;59832;51.146;14.024;2023-12-20T07:28:15;97709.53;;;3.94
71960;BMP280;59832;51.146;14.024;2023-12-20T07:30:41;97722.75;;;3.91
71960;BMP280;59832;51.146;14.024;2023-12-20T07:33:08;97716.09;;;3.87
71960;BMP280;59832;51.146;14.024;2023-12-20T07:35:36;97716.84;;;3.87
71960;BMP280;59832;51.146;14.024;2023-12-20T07:38:02;97718.34;;;3.88
71960;BMP280;59832;51.146;14.024;2023-12-20T07:40:29;97718.19;;;3.85
71960;BMP280;59832;51.146;14.024;2023-12-20T07:42:55;97716.69;;;3.84
71960;BMP280;59832;51.146;14.024;2023-12-20T07:45:22;97716.09;;;3.87
71960;BMP280;59832;51.146;14.024;2023-12-20T07:47:48;97711.53;;;3.80
71960;BMP280;59832;51.146;14.024;2023-12-20T07:50:15;97717.44;;;3.84
71960;BMP280;59832;51.146;14.024;2023-12-20T07:52:42;97716.41;;;3.85
71960;BMP280;59832;51.146;14.024;2023-12-20T07:55:08;97727.03;;;3.91
71960;BMP280;59832;51.146;14.024;2023-12-20T07:57:34;97728.63;;;3.96
71960;BMP280;59832;51.146;14.024;2023-12-20T08:00:01;97713.97;;;3.98
71960;BMP280;59832;51.146;14.024;2023-12-20T08:02:27;97711.88;;;4.00
71960;BMP280;59832;51.146;14.024;2023-12-20T08:04:54;97715.13;;;4.00
71960;BMP280;59832;51.146;14.024;2023-12-20T08:07:20;97717.06;;;4.03
71960;BMP280;59832;51.146;14.024;2023-12-20T08:09:46;97714.25;;;4.05
71960;BMP280;59832;51.146;14.024;2023-12-20T08:12:13;97713.22;;;4.06
71960;BMP280;59832;51.146;14.024;2023-12-20T08:14:39;97713.03;;;4.11
71960;BMP280;59832;51.146;14.024;2023-12-20T08:17:06;97721.47;;;4.15
71960;BMP280;59832;51.146;14.024;2023-12-20T08:19:32;97727.47;;;4.22
71960;BMP280;59832;51.146;14.024;2023-12-20T08:21:59;97722.56;;;4.26
71960;BMP280;59832;51.146;14.024;2023-12-20T08:24:25;97728.59;;;4.33
71960;BMP280;59832;51.146;14.024;2023-12-20T08:26:51;97726.13;;;4.25
71960;BMP280;59832;51.146;14.024;2023-12-20T08:29:18;97731.72;;;4.30
71960;BMP280;59832;51.146;14.024;2023-12-20T08:31:45;97727.25;;;4.36
71960;BMP280;59832;51.146;14.024;2023-12-20T08:34:13;97733.75;;;4.37
71960;BMP280;59832;51.146;14.024;2023-12-20T08:36:41;97730.88;;;4.47
71960;BMP280;59832;51.146;14.024;2023-12-20T08:39:07;97726.09;;;4.54
71960;BMP280;59832;51.146;14.024;2023-12-20T08:41:35;97728.00;;;4.57
71960;BMP280;59832;51.146;14.024;2023-12-20T08:44:01;97729.22;;;4.51
71960;BMP280;59832;51.146;14.024;2023-12-20T08:46:27;97721.88;;;4.58
71960;BMP280;59832;51.146;14.024;2023-12-20T08:48:54;97730.69;;;4.73
71960;BMP280;59832;51.146;14.024;2023-12-20T08:51:20;97729.81;;;4.69
71960;BMP280;59832;51.146;14.024;2023-12-20T08:53:49;97726.78;;;4.75
71960;BMP280;59832;51.146;14.024;2023-12-20T08:56:15;97727.59;;;5.21
71960;BMP280;59832;51.146;14.024;2023-12-20T08:58:42;97731.22;;;5.81
71960;BMP280;59832;51.146;14.024;2023-12-20T09:01:09;97728.78;;;5.96
71960;BMP280;59832;51.146;14.024;2023-12-20T09:03:36;97724.00;;;6.19
71960;BMP280;59832;51.146;14.024;2023-12-20T09:06:02;97723.84;;;6.12
71960;BMP280;59832;51.146;14.024;2023-12-20T09:08:29;97732.66;;;6.06
71960;BMP280;59832;51.146;14.024;2023-12-20T09:10:55;97733.22;;;5.99
71960;BMP280;59832;51.146;14.024;2023-12-20T09:13:22;97726.91;;;5.81
71960;BMP280;59832;51.146;14.024;2023-12-20T09:15:57;97717.34;;;5.87
71960;BMP280;59832;51.146;14.024;2023-12-20T09:18:24;97723.22;;;5.79
71960;BMP280;59832;51.146;14.024;2023-12-20T09:20:50;97734.13;;;6.07
71960;BMP280;59832;51.146;14.024;2023-12-20T09:23:17;97735.56;;;6.32
71960;BMP280;59832;51.146;14.024;2023-12-20T09:25:44;97730.16;;;6.46
71960;BMP280;59832;51.146;14.024;2023-12-20T09:28:11;97726.03;;;6.54
71960;BMP280;59832;51.146;14.024;2023-12-20T09:30:37;97716.66;;;6.14
71960;BMP280;59832;51.146;14.024;2023-12-20T09:33:06;97727.50;;;6.03
71960;BMP280;59832;51.146;14.024;2023-12-20T09:35:34;97731.59;;;6.07
71960;BMP280;59832;51.146;14.024;2023-12-20T09:38:00;97720.19;;;6.37
71960;BMP280;59832;51.146;14.024;2023-12-20T09:40:27;97714.34;;;6.49
71960;BMP280;59832;51.146;14.024;2023-12-20T09:42:57;97705.13;;;6.41
71960;BMP280;59832;51.146;14.024;2023-12-20T09:45:24;97707.72;;;6.44
71960;BMP280;59832;51.146;14.024;2023-12-20T09:47:52;97717.59;;;6.50
71960;BMP280;59832;51.146;14.024;2023-12-20T09:50:19;97716.13;;;6.49
71960;BMP280;59832;51.146;14.024;2023-12-20T09:52:49;97706.63;;;6.30
71960;BMP280;59832;51.146;14.024;2023-12-20T09:55:16;97701.41;;;6.11
71960;BMP280;59832;51.146;14.024;2023-12-20T09:57:43;97708.38;;;6.02
71960;BMP280;59832;51.146;14.024;2023-12-20T10:00:10;97692.81;;;5.87
71960;BMP280;59832;51.146;14.024;2023-12-20T10:02:38;97693.75;;;5.83
71960;BMP280;59832;51.146;14.024;2023-12-20T10:05:06;97692.72;;;5.72
71960;BMP280;59832;51.146;14.024;2023-12-20T10:07:35;97690.53;;;5.70
71960;BMP280;59832;51.146;14.024;2023-12-20T10:10:01;97685.78;;;5.69
71960;BMP280;59832;51.146;14.024;2023-12-20T10:12:28;97673.16;;;5.56
71960;BMP280;59832;51.146;14.024;2023-12-20T10:14:54;97672.22;;;5.49
71960;BMP280;59832;51.146;14.024;2023-12-20T10:17:21;97670.00;;;5.47
71960;BMP280;59832;51.146;14.024;2023-12-20T10:19:47;97673.06;;;5.53
71960;BMP280;59832;51.146;14.024;2023-12-20T10:22:14;97676.72;;;5.55
71960;BMP280;59832;51.146;14.024;2023-12-20T10:24:41;97671.13;;;5.62
71960;BMP280;59832;51.146;14.024;2023-12-20T10:27:08;97671.47;;;5.61
71960;BMP280;59832;51.146;14.024;2023-12-20T10:29:37;97656.63;;;5.59
71960;BMP280;59832;51.146;14.024;2023-12-20T10:32:24;97652.84;;;5.65
71960;BMP280;59832;51.146;14.024;2023-12-20T10:34:51;97656.09;;;5.78
71960;BMP280;59832;51.146;14.024;2023-12-20T10:37:18;97641.78;;;5.82
71960;BMP280;59832;51.146;14.024;2023-12-20T10:39:47;97646.69;;;6.03
71960;BMP280;59832;51.146;14.024;2023-12-20T10:42:15;97648.53;;;6.18
71960;BMP280;59832;51.146;14.024;2023-12-20T10:44:42;97654.50;;;6.25
71960;BMP280;59832;51.146;14.024;2023-12-20T10:47:09;97646.03;;;6.33
71960;BMP280;59832;51.146;14.024;2023-12-20T10:49:36;97653.69;;;6.21
71960;BMP280;59832;51.146;14.024;2023-12-20T10:52:03;97647.31;;;6.12
71960;BMP280;59832;51.146;14.024;2023-12-20T10:54:30;97648.47;;;6.02
71960;BMP280;59832;51.146;14.024;2023-12-20T10:56:57;97639.53;;;6.05
71960;BMP280;59832;51.146;14.024;2023-12-20T10:59:24;97628.59;;;6.00
71960;BMP280;59832;51.146;14.024;2023-12-20T11:01:50;97630.47;;;6.04
71960;BMP280;59832;51.146;14.024;2023-12-20T11:04:22;97625.28;;;6.40
71960;BMP280;59832;51.146;14.024;2023-12-20T11:06:54;97629.59;;;6.39
71960;BMP280;59832;51.146;14.024;2023-12-20T11:09:23;97638.56;;;6.37
71960;BMP280;59832;51.146;14.024;2023-12-20T11:14:27;97631.09;;;6.13
71960;BMP280;59832;51.146;14.024;2023-12-20T11:17:10;97630.13;;;6.05
71960;BMP280;59832;51.146;14.024;2023-12-20T11:22:19;97623.34;;;5.93
71960;BMP280;59832;51.146;14.024;2023-12-20T11:24:48;97622.38;;;5.98
71960;BMP280;59832;51.146;14.024;2023-12-20T11:27:16;97615.63;;;6.02
71960;BMP280;59832;51.146;14.024;2023-12-20T11:29:42;97613.75;;;5.99
71960;BMP280;59832;51.146;14.024;2023-12-20T11:34:57;97617.44;;;5.89
71960;BMP280;59832;51.146;14.024;2023-12-20T11:37:30;97612.97;;;5.83
71960;BMP280;59832;51.146;14.024;2023-12-20T11:40:07;97608.44;;;5.76
71960;BMP280;59832;51.146;14.024;2023-12-20T11:42:39;97608.75;;;5.63
71960;BMP280;59832;51.146;14.024;2023-12-20T11:45:09;97609.19;;;5.65
71960;BMP280;59832;51.146;14.024;2023-12-20T11:47:36;97608.16;;;5.66
71960;BMP280;59832;51.146;14.024;2023-12-20T11:50:03;97596.03;;;5.71
71960;BMP280;59832;51.146;14.024;2023-12-20T11:52:31;97602.13;;;5.82
71960;BMP280;59832;51.146;14.024;2023-12-20T11:54:57;97586.78;;;6.03
71960;BMP280;59832;51.146;14.024;2023-12-20T11:57:24;97581.16;;;6.22
71960;BMP280;59832;51.146;14.024;2023-12-20T11:59:52;97582.88;;;6.33
71960;BMP280;59832;51.146;14.024;2023-12-20T12:02:19;97580.13;;;6.38
71960;BMP280;59832;51.146;14.024;2023-12-20T12:04:45;97573.47;;;6.18
71960;BMP280;59832;51.146;14.024;2023-12-20T12:07:14;97575.22;;;6.30
71960;BMP280;59832;51.146;14.024;2023-12-20T12:09:41;97569.41;;;6.29
71960;BMP280;59832;51.146;14.024;2023-12-20T12:12:07;97562.72;;;6.21
71960;BMP280;59832;51.146;14.024;2023-12-20T12:14:37;97555.00;;;6.30
71960;BMP280;59832;51.146;14.024;2023-12-20T12:17:04;97550.91;;;6.25
71960;BMP280;59832;51.146;14.024;2023-12-20T12:19:31;97550.94;;;6.41
71960;BMP280;59832;51.146;14.024;2023-12-20T12:22:05;97546.19;;;6.39
71960;BMP280;59832;51.146;14.024;2023-12-20T12:24:40;97540.97;;;6.32
71960;BMP280;59832;51.146;14.024;2023-12-20T12:27:07;97537.69;;;6.32
71960;BMP280;59832;51.146;14.024;2023-12-20T12:29:34;97526.28;;;6.22
71960;BMP280;59832;51.146;14.024;2023-12-20T12:32:01;97530.94;;;6.20
71960;BMP280;59832;51.146;14.024;2023-12-20T12:34:27;97514.53;;;6.14
71960;BMP280;59832;51.146;14.024;2023-12-20T12:36:54;97521.06;;;6.15
71960;BMP280;59832;51.146;14.024;2023-12-20T12:39:21;97519.13;;;6.24
71960;BMP280;59832;51.146;14.024;2023-12-20T12:41:50;97525.72;;;6.13
71960;BMP280;59832;51.146;14.024;2023-12-20T12:44:16;97520.34;;;6.15
71960;BMP280;59832;51.146;14.024;2023-12-20T12:46:44;97511.78;;;6.19
71960;BMP280;59832;51.146;14.024;2023-12-20T12:49:11;97512.81;;;6.18
71960;BMP280;59832;51.146;14.024;2023-12-20T12:51:37;97511.47;;;6.21
71960;BMP280;59832;51.146;14.024;2023-12-20T12:54:04;97505.91;;;6.15
71960;BMP280;59832;51.146;14.024;2023-12-20T12:56:30;97503.31;;;6.12
71960;BMP280;59832;51.146;14.024;2023-12-20T12:58:57;97491.63;;;6.07
71960;BMP280;59832;51.146;14.024;2023-12-20T13:01:23;97496.59;;;6.04
71960;BMP280;59832;51.146;14.024;2023-12-20T13:03:50;97493.72;;;6.05
71960;BMP280;59832;51.146;14.024;2023-12-20T13:06:17;97482.03;;;6.13
71960;BMP280;59832;51.146;14.024;2023-12-20T13:08:43;97483.16;;;6.15
71960;BMP280;59832;51.146;14.024;2023-12-20T13:11:10;97470.78;;;6.10
71960;BMP280;59832;51.146;14.024;2023-12-20T13:13:37;97476.56;;;6.11
71960;BMP280;59832;51.146;14.024;2023-12-20T13:16:03;97477.38;;;6.15
71960;BMP280;59832;51.146;14.024;2023-12-20T13:18:30;97469.72;;;6.11
71960;BMP280;59832;51.146;14.024;2023-12-20T13:20:57;97470.38;;;6.08
71960;BMP280;59832;51.146;14.024;2023-12-20T13:23:23;97457.72;;;6.08
71960;BMP280;59832;51.146;14.024;2023-12-20T13:25:49;97456.69;;;6.09
71960;BMP280;59832;51.146;14.024;2023-12-20T13:28:16;97452.78;;;6.12
71960;BMP280;59832;51.146;14.024;2023-12-20T13:30:43;97445.03;;;6.05
71960;BMP280;59832;51.146;14.024;2023-12-20T13:33:10;97450.31;;;5.99
71960;BMP280;59832;51.146;14.024;2023-12-20T13:35:37;97443.88;;;6.02
71960;BMP280;59832;51.146;14.024;2023-12-20T13:38:03;97449.66;;;5.87
71960;BMP280;59832;51.146;14.024;2023-12-20T13:40:30;97441.50;;;5.93
71960;BMP280;59832;51.146;14.024;2023-12-20T13:42:57;97439.78;;;5.97
71960;BMP280;59832;51.146;14.024;2023-12-20T13:45:23;97440.13;;;5.96
71960;BMP280;59832;51.146;14.024;2023-12-20T13:47:51;97438.00;;;5.98
71960;BMP280;59832;51.146;14.024;2023-12-20T13:50:18;97436.28;;;6.02
71960;BMP280;59832;51.146;14.024;2023-12-20T13:52:44;97431.97;;;6.03
71960;BMP280;59832;51.146;14.024;2023-12-20T13:55:12;97431.16;;;5.98
71960;BMP280;59832;51.146;14.024;2023-12-20T13:57:39;97431.91;;;5.99
71960;BMP280;59832;51.146;14.024;2023-12-20T14:00:09;97424.25;;;5.95
71960;BMP280;59832;51.146;14.024;2023-12-20T14:02:41;97425.38;;;5.98
71960;BMP280;59832;51.146;14.024;2023-12-20T14:05:08;97424.16;;;5.92
71960;BMP280;59832;51.146;14.024;2023-12-20T14:07:35;97411.84;;;5.90
71960;BMP280;59832;51.146;14.024;2023-12-20T14:10:03;97424.47;;;5.90
71960;BMP280;59832;51.146;14.024;2023-12-20T14:12:29;97416.47;;;5.88
71960;BMP280;59832;51.146;14.024;2023-12-20T14:14:56;97410.16;;;5.94